sensor_id;sensor_type;location;lat;lon;timestamp;pressure;altitude;pressure_sealevel;temperature;humidity
11339;BME280;5724;42.684;23.252;2024-01-16T00:01:27;92872.50;;;1.37;100.00
11339;BME280;5724;42.684;23.252;2024-01-16T00:03:53;92868.66;;;1.51;100.00
11339;BME280;5724;42.684;23.252;2024-01-16T00:06:19;92885.50;;;1.48;99.69
11339;BME280;5724;42.684;23.252;2024-01-16T00:08:44;92863.81;;;1.68;99.49
11339;BME280;5724;42.684;23.252;2024-01-16T00:11:10;92878.16;;;1.72;99.17
11339;BME280;5724;42.684;23.252;2024-01-16T00:13:35;92872.78;;;1.85;99.55
11339;BME280;5724;42.684;23.252;2024-01-16T00:16:04;92877.22;;;1.93;99.37
11339;BME280;5724;42.684;23.252;2024-01-16T00:18:30;92874.75;;;2.00;98.67
11339;BME280;5724;42.684;23.252;2024-01-16T00:20:55;92877.88;;;2.14;98.53
11339;BME280;5724;42.684;23.252;2024-01-16T00:23:21;92877.75;;;1.58;97.56
11339;BME280;5724;42.684;23.252;2024-01-16T00:25:46;92888.06;;;1.20;100.00
11339;BME280;5724;42.684;23.252;2024-01-16T00:28:12;92897.91;;;0.91;100.00
11339;BME280;5724;42.684;23.252;2024-01-16T00:30:37;92874.41;;;0.67;100.00
11339;BME280;5724;42.684;23.252;2024-01-16T00:33:03;92890.59;;;0.79;100.00
11339;BME280;5724;42.684;23.252;2024-01-16T00:35:29;92905.16;;;0.78;100.00
11339;BME280;5724;42.684;23.252;2024-01-16T00:37:54;92883.09;;;0.85;100.00
11339;BME280;5724;42.684;23.252;2024-01-16T00:40:20;92900.34;;;0.96;100.00
11339;BME280;5724;42.684;23.252;2024-01-16T00:42:45;92887.38;;;1.23;100.00
11339;BME280;5724;42.684;23.252;2024-01-16T00:45:10;92901.66;;;1.35;99.29
11339;BME280;5724;42.684;23.252;2024-01-16T00:47:36;92875.63;;;1.39;98.85
11339;BME280;5724;42.684;23.252;2024-01-16T00:50:02;92896.34;;;1.51;99.60
11339;BME280;5724;42.684;23.252;2024-01-16T00:52:28;92893.53;;;1.72;98.86
11339;BME280;5724;42.684;23.252;2024-01-16T00:54:54;92906.44;;;1.79;97.47
11339;BME280;5724;42.684;23.252;2024-01-16T00:57:19;92898.34;;;1.91;97.43
11339;BME280;5724;42.684;23.252;2024-01-16T00:59:46;92914.94;;;1.81;96.24
11339;BME280;5724;42.684;23.252;2024-01-16T01:02:12;92915.19;;;1.88;97.03
11339;BME280;5724;42.684;23.252;2024-01-16T01:04:38;92924.25;;;1.95;96.66
11339;BME280;5724;42.684;23.252;2024-01-16T01:07:04;92930.53;;;1.99;96.72
11339;BME280;5724;42.684;23.252;2024-01-16T01:09:29;92904.31;;;1.72;96.81
11339;BME280;5724;42.684;23.252;2024-01-16T01:11:57;92924.19;;;1.55;98.56
11339;BME280;5724;42.684;23.252;2024-01-16T01:14:23;92927.09;;;1.38;98.14
11339;BME280;5724;42.684;23.252;2024-01-16T01:16:48;92933.94;;;1.35;99.58
11339;BME280;5724;42.684;23.252;2024-01-16T01:19:14;92925.72;;;1.32;100.00
11339;BME280;5724;42.684;23.252;2024-01-16T01:21:39;92929.56;;;1.55;100.00
11339;BME280;5724;42.684;23.252;2024-01-16T01:24:05;92890.53;;;1.25;100.00
11339;BME280;5724;42.684;23.252;2024-01-16T01:26:30;92902.19;;;1.17;100.00
11339;BME280;5724;42.684;23.252;2024-01-16T01:28:56;92909.69;;;1.23;100.00
11339;BME280;5724;42.684;23.252;2024-01-16T01:31:22;92902.88;;;1.50;100.00
11339;BME280;5724;42.684;23.252;2024-01-16T01:33:48;92890.19;;;1.63;100.00
11339;BME280;5724;42.684;23.252;2024-01-16T01:36:13;92897.47;;;1.75;100.00
11339;BME280;5724;42.684;23.252;2024-01-16T01:38:39;92910.66;;;1.92;100.00
11339;BME280;5724;42.684;23.252;2024-01-16T01:41:04;92895.63;;;2.03;100.00
11339;BME280;5724;42.684;23.252;2024-01-16T01:43:30;92876.44;;;2.05;100.00
11339;BME280;5724;42.684;23.252;2024-01-16T01:46:16;92907.59;;;2.18;100.00
11339;BME280;5724;42.684;23.252;2024-01-16T01:48:43;92902.63;;;2.20;100.00
11339;BME280;5724;42.684;23.252;2024-01-16T01:51:10;92885.63;;;2.32;99.88
11339;BME280;5724;42.684;23.252;2024-01-16T01:53:36;92898.38;;;2.19;100.00
11339;BME280;5724;42.684;23.252;2024-01-16T01:56:04;92886.91;;;1.94;100.00
11339;BME280;5724;42.684;23.252;2024-01-16T01:58:36;92905.53;;;1.87;100.00
11339;BME280;5724;42.684;23.252;2024-01-16T02:01:03;92909.03;;;1.75;100.00
11339;BME280;5724;42.684;23.252;2024-01-16T02:03:36;92883.13;;;1.58;100.00
11339;BME280;5724;42.684;23.252;2024-01-16T02:06:04;92922.81;;;1.73;100.00
11339;BME280;5724;42.684;23.252;2024-01-16T02:08:32;92909.69;;;1.72;100.00
11339;BME280;5724;42.684;23.252;2024-01-16T02:10:58;92914.41;;;1.75;100.00
11339;BME280;5724;42.684;23.252;2024-01-16T02:13:23;92904.50;;;1.91;100.00
11339;BME280;5724;42.684;23.252;2024-01-16T02:15:50;92900.56;;;2.01;100.00
11339;BME280;5724;42.684;23.252;2024-01-16T02:18:16;92916.03;;;2.16;100.00
11339;BME280;5724;42.684;23.252;2024-01-16T02:20:42;92925.75;;;2.33;100.00
11339;BME280;5724;42.684;23.252;2024-01-16T02:23:10;92928.75;;;2.44;100.00
11339;BME280;5724;42.684;23.252;2024-01-16T02:25:35;92931.81;;;2.58;100.00
11339;BME280;5724;42.684;23.252;2024-01-16T02:28:02;92942.59;;;2.70;100.00
11339;BME280;5724;42.684;23.252;2024-01-16T02:30:28;92934.22;;;2.75;100.00
11339;BME280;5724;42.684;23.252;2024-01-16T02:32:54;92925.19;;;3.11;100.00
11339;BME280;5724;42.684;23.252;2024-01-16T02:35:19;92934.06;;;3.43;100.00
11339;BME280;5724;42.684;23.252;2024-01-16T02:37:45;92928.09;;;4.01;100.00
11339;BME280;5724;42.684;23.252;2024-01-16T02:40:11;92939.56;;;4.49;100.00
11339;BME280;5724;42.684;23.252;2024-01-16T02:42:36;92945.34;;;4.67;100.00
11339;BME280;5724;42.684;23.252;2024-01-16T02:45:04;92956.44;;;4.62;100.00
11339;BME280;5724;42.684;23.252;2024-01-16T02:47:30;92959.88;;;4.78;100.00
11339;BME280;5724;42.684;23.252;2024-01-16T02:49:55;93002.66;;;3.86;100.00
11339;BME280;5724;42.684;23.252;2024-01-16T02:52:21;93004.84;;;3.21;100.00
11339;BME280;5724;42.684;23.252;2024-01-16T02:54:46;93012.22;;;2.80;100.00
11339;BME280;5724;42.684;23.252;2024-01-16T02:57:12;93020.75;;;2.82;100.00
11339;BME280;5724;42.684;23.252;2024-01-16T02:59:37;93011.16;;;2.85;100.00
11339;BME280;5724;42.684;23.252;2024-01-16T03:02:03;93024.00;;;2.76;100.00
11339;BME280;5724;42.684;23.252;2024-01-16T03:04:29;93026.56;;;2.84;100.00
11339;BME280;5724;42.684;23.252;2024-01-16T03:06:56;93034.97;;;2.95;100.00
11339;BME280;5724;42.684;23.252;2024-01-16T03:09:21;93079.66;;;3.08;100.00
11339;BME280;5724;42.684;23.252;2024-01-16T03:11:47;93084.25;;;3.08;100.00
11339;BME280;5724;42.684;23.252;2024-01-16T03:14:12;93085.78;;;2.93;100.00
11339;BME280;5724;42.684;23.252;2024-01-16T03:16:39;93079.59;;;2.93;100.00
11339;BME280;5724;42.684;23.252;2024-01-16T03:19:05;93128.75;;;2.74;100.00
11339;BME280;5724;42.684;23.252;2024-01-16T03:21:30;93085.41;;;2.54;100.00
11339;BME280;5724;42.684;23.252;2024-01-16T03:23:56;93090.38;;;2.52;100.00
11339;BME280;5724;42.684;23.252;2024-01-16T03:26:21;93119.34;;;2.43;100.00
11339;BME280;5724;42.684;23.252;2024-01-16T03:28:47;93128.22;;;2.44;100.00
11339;BME280;5724;42.684;23.252;2024-01-16T03:31:13;93146.84;;;2.24;100.00
11339;BME280;5724;42.684;23.252;2024-01-16T03:33:42;93157.84;;;2.19;100.00
11339;BME280;5724;42.684;23.252;2024-01-16T03:36:09;93128.41;;;2.02;100.00
11339;BME280;5724;42.684;23.252;2024-01-16T03:38:35;93131.31;;;1.97;100.00
11339;BME280;5724;42.684;23.252;2024-01-16T03:41:02;93157.66;;;1.91;100.00
11339;BME280;5724;42.684;23.252;2024-01-16T03:43:29;93171.91;;;1.80;100.00
11339;BME280;5724;42.684;23.252;2024-01-16T03:45:57;93174.59;;;1.80;100.00
11339;BME280;5724;42.684;23.252;2024-01-16T03:48:23;93171.34;;;1.74;100.00
11339;BME280;5724;42.684;23.252;2024-01-16T03:50:49;93156.38;;;1.64;100.00
11339;BME280;5724;42.684;23.252;2024-01-16T03:53:14;93182.03;;;1.62;100.00
11339;BME280;5724;42.684;23.252;2024-01-16T03:55:40;93181.22;;;1.49;100.00
11339;BME280;5724;42.684;23.252;2024-01-16T03:58:05;93183.84;;;1.37;100.00
11339;BME280;5724;42.684;23.252;2024-01-16T04:00:31;93231.34;;;1.33;100.00
11339;BME280;5724;42.684;23.252;2024-01-16T04:02:57;93213.38;;;1.25;100.00
11339;BME280;5724;42.684;23.252;2024-01-16T04:05:22;93219.88;;;1.24;100.00
11339;BME280;5724;42.684;23.252;2024-01-16T04:07:48;93224.53;;;1.14;100.00
11339;BME280;5724;42.684;23.252;2024-01-16T04:10:13;93215.47;;;0.98;100.00
11339;BME280;5724;42.684;23.252;2024-01-16T04:12:39;93231.56;;;1.07;100.00
11339;BME280;5724;42.684;23.252;2024-01-16T04:15:04;93256.72;;;1.02;100.00
11339;BME280;5724;42.684;23.252;2024-01-16T04:17:30;93253.16;;;0.90;100.00
11339;BME280;5724;42.684;23.252;2024-01-16T04:19:55;93258.88;;;0.88;100.00
11339;BME280;5724;42.684;23.252;2024-01-16T04:22:21;93252.09;;;0.82;100.00
11339;BME280;5724;42.684;23.252;2024-01-16T04:24:46;93231.41;;;0.74;100.00
11339;BME280;5724;42.684;23.252;2024-01-16T04:27:13;93250.09;;;0.70;100.00
11339;BME280;5724;42.684;23.252;2024-01-16T04:29:38;93258.94;;;0.71;100.00
11339;BME280;5724;42.684;23.252;2024-01-16T04:32:04;93276.81;;;0.67;100.00
11339;BME280;5724;42.684;23.252;2024-01-16T04:34:29;93254.88;;;0.56;100.00
11339;BME280;5724;42.684;23.252;2024-01-16T04:36:55;93244.13;;;0.56;100.00
11339;BME280;5724;42.684;23.252;2024-01-16T04:39:21;93249.91;;;0.37;100.00
11339;BME280;5724;42.684;23.252;2024-01-16T04:41:49;93289.06;;;0.47;100.00
11339;BME280;5724;42.684;23.252;2024-01-16T04:44:14;93293.03;;;0.49;100.00
11339;BME280;5724;42.684;23.252;2024-01-16T04:46:40;93293.97;;;0.53;100.00
11339;BME280;5724;42.684;23.252;2024-01-16T04:49:05;93300.31;;;0.49;100.00
11339;BME280;5724;42.684;23.252;2024-01-16T04:51:31;93319.25;;;0.52;100.00
11339;BME280;5724;42.684;23.252;2024-01-16T04:53:56;93333.13;;;0.63;100.00
11339;BME280;5724;42.684;23.252;2024-01-16T04:56:22;93323.50;;;0.62;100.00
11339;BME280;5724;42.684;23.252;2024-01-16T04:58:47;93323.16;;;0.64;100.00
11339;BME280;5724;42.684;23.252;2024-01-16T05:01:13;93341.81;;;0.69;100.00
11339;BME280;5724;42.684;23.252;2024-01-16T05:03:38;93366.03;;;0.60;100.00
11339;BME280;5724;42.684;23.252;2024-01-16T05:06:04;93361.16;;;0.53;100.00
11339;BME280;5724;42.684;23.252;2024-01-16T05:08:33;93366.38;;;0.50;100.00
11339;BME280;5724;42.684;23.252;2024-01-16T05:10:58;93389.28;;;0.47;100.00
11339;BME280;5724;42.684;23.252;2024-01-16T05:13:24;93359.25;;;0.45;100.00
11339;BME280;5724;42.684;23.252;2024-01-16T05:15:49;93384.56;;;0.44;100.00
11339;BME280;5724;42.684;23.252;2024-01-16T05:18:15;93390.06;;;0.48;100.00
11339;BME280;5724;42.684;23.252;2024-01-16T05:20:40;93413.31;;;0.44;100.00
11339;BME280;5724;42.684;23.252;2024-01-16T05:23:06;93412.69;;;0.47;100.00
11339;BME280;5724;42.684;23.252;2024-01-16T05:25:31;93410.00;;;0.47;100.00
11339;BME280;5724;42.684;23.252;2024-01-16T05:27:57;93426.13;;;0.38;100.00
11339;BME280;5724;42.684;23.252;2024-01-16T05:30:22;93423.44;;;0.38;100.00
11339;BME280;5724;42.684;23.252;2024-01-16T05:32:48;93423.94;;;0.32;100.00
11339;BME280;5724;42.684;23.252;2024-01-16T05:35:13;93416.34;;;0.16;100.00
11339;BME280;5724;42.684;23.252;2024-01-16T05:37:39;93432.13;;;0.26;100.00
11339;BME280;5724;42.684;23.252;2024-01-16T05:40:05;93446.53;;;0.22;100.00
11339;BME280;5724;42.684;23.252;2024-01-16T05:42:32;93461.38;;;0.28;100.00
11339;BME280;5724;42.684;23.252;2024-01-16T05:44:58;93485.72;;;0.49;100.00
11339;BME280;5724;42.684;23.252;2024-01-16T05:47:23;93479.38;;;0.71;100.00
11339;BME280;5724;42.684;23.252;2024-01-16T05:49:53;93479.84;;;0.81;100.00
11339;BME280;5724;42.684;23.252;2024-01-16T05:52:18;93501.34;;;0.90;100.00
11339;BME280;5724;42.684;23.252;2024-01-16T05:54:44;93497.88;;;0.90;100.00
11339;BME280;5724;42.684;23.252;2024-01-16T05:57:09;93503.25;;;0.98;100.00
11339;BME280;5724;42.684;23.252;2024-01-16T05:59:35;93504.81;;;1.08;100.00
11339;BME280;5724;42.684;23.252;2024-01-16T06:02:00;93524.59;;;0.86;100.00
11339;BME280;5724;42.684;23.252;2024-01-16T06:04:26;93549.91;;;0.85;100.00
11339;BME280;5724;42.684;23.252;2024-01-16T06:06:51;93526.47;;;0.94;100.00
11339;BME280;5724;42.684;23.252;2024-01-16T06:09:17;93537.56;;;0.93;100.00
11339;BME280;5724;42.684;23.252;2024-01-16T06:11:43;93520.50;;;0.97;100.00
11339;BME280;5724;42.684;23.252;2024-01-16T06:14:09;93544.19;;;0.86;100.00
11339;BME280;5724;42.684;23.252;2024-01-16T06:16:35;93549.91;;;0.85;100.00
11339;BME280;5724;42.684;23.252;2024-01-16T06:19:01;93567.47;;;0.91;100.00
11339;BME280;5724;42.684;23.252;2024-01-16T06:21:27;93583.91;;;0.81;100.00
11339;BME280;5724;42.684;23.252;2024-01-16T06:23:52;93579.66;;;0.80;100.00
11339;BME280;5724;42.684;23.252;2024-01-16T06:26:18;93566.66;;;0.65;100.00
11339;BME280;5724;42.684;23.252;2024-01-16T06:28:44;93571.13;;;0.78;100.00
11339;BME280;5724;42.684;23.252;2024-01-16T06:31:10;93590.09;;;0.81;100.00
11339;BME280;5724;42.684;23.252;2024-01-16T06:33:35;93605.56;;;0.76;100.00
11339;BME280;5724;42.684;23.252;2024-01-16T06:36:02;93604.94;;;0.70;100.00
11339;BME280;5724;42.684;23.252;2024-01-16T06:38:30;93591.03;;;0.60;100.00
11339;BME280;5724;42.684;23.252;2024-01-16T06:40:56;93607.28;;;0.46;100.00
11339;BME280;5724;42.684;23.252;2024-01-16T06:43:21;93622.00;;;0.48;98.67
11339;BME280;5724;42.684;23.252;2024-01-16T06:45:47;93644.25;;;0.40;96.52
11339;BME280;5724;42.684;23.252;2024-01-16T06:48:13;93643.63;;;0.43;98.12
11339;BME280;5724;42.684;23.252;2024-01-16T06:50:38;93643.50;;;0.48;98.14
11339;BME280;5724;42.684;23.252;2024-01-16T06:53:04;93662.88;;;0.37;97.91
11339;BME280;5724;42.684;23.252;2024-01-16T06:55:29;93668.88;;;0.34;98.62
11339;BME280;5724;42.684;23.252;2024-01-16T06:57:55;93663.22;;;0.44;98.29
11339;BME280;5724;42.684;23.252;2024-01-16T07:00:20;93674.78;;;0.44;98.28
11339;BME280;5724;42.684;23.252;2024-01-16T07:02:48;93678.75;;;0.55;98.56
11339;BME280;5724;42.684;23.252;2024-01-16T07:05:14;93677.66;;;0.56;99.16
11339;BME280;5724;42.684;23.252;2024-01-16T07:07:39;93687.16;;;0.63;98.29
11339;BME280;5724;42.684;23.252;2024-01-16T07:10:06;93689.69;;;0.59;97.94
11339;BME280;5724;42.684;23.252;2024-01-16T07:12:43;93708.94;;;0.52;96.70
11339;BME280;5724;42.684;23.252;2024-01-16T07:15:08;93719.06;;;0.55;96.54
11339;BME280;5724;42.684;23.252;2024-01-16T07:17:34;93727.97;;;0.65;95.88
11339;BME280;5724;42.684;23.252;2024-01-16T07:19:59;93734.44;;;0.64;95.85
11339;BME280;5724;42.684;23.252;2024-01-16T07:22:25;93750.09;;;0.62;96.10
11339;BME280;5724;42.684;23.252;2024-01-16T07:24:50;93744.72;;;0.62;95.25
11339;BME280;5724;42.684;23.252;2024-01-16T07:27:16;93762.59;;;0.66;95.36
11339;BME280;5724;42.684;23.252;2024-01-16T07:29:41;93765.91;;;0.63;95.90
11339;BME280;5724;42.684;23.252;2024-01-16T07:32:07;93766.22;;;0.62;96.23
11339;BME280;5724;42.684;23.252;2024-01-16T07:34:32;93767.81;;;0.63;95.53
11339;BME280;5724;42.684;23.252;2024-01-16T07:36:58;93773.84;;;0.77;96.67
11339;BME280;5724;42.684;23.252;2024-01-16T07:39:23;93782.44;;;0.79;95.93
11339;BME280;5724;42.684;23.252;2024-01-16T07:41:49;93771.78;;;0.74;95.32
11339;BME280;5724;42.684;23.252;2024-01-16T07:44:14;93778.63;;;0.80;95.14
11339;BME280;5724;42.684;23.252;2024-01-16T07:46:40;93787.31;;;0.77;95.52
11339;BME280;5724;42.684;23.252;2024-01-16T07:49:05;93791.25;;;0.71;96.14
11339;BME280;5724;42.684;23.252;2024-01-16T07:51:31;93801.66;;;0.64;95.95
11339;BME280;5724;42.684;23.252;2024-01-16T07:54:09;93796.34;;;0.81;96.86
11339;BME280;5724;42.684;23.252;2024-01-16T07:56:36;93812.75;;;0.71;95.97
11339;BME280;5724;42.684;23.252;2024-01-16T07:59:02;93803.09;;;0.70;96.21
11339;BME280;5724;42.684;23.252;2024-01-16T08:01:28;93812.84;;;0.57;95.98
11339;BME280;5724;42.684;23.252;2024-01-16T08:03:57;93804.22;;;0.69;95.95
11339;BME280;5724;42.684;23.252;2024-01-16T08:06:24;93817.50;;;0.74;96.17
11339;BME280;5724;42.684;23.252;2024-01-16T08:08:50;93817.69;;;0.77;96.01
11339;BME280;5724;42.684;23.252;2024-01-16T08:11:15;93821.66;;;0.80;95.77
11339;BME280;5724;42.684;23.252;2024-01-16T08:13:41;93820.56;;;0.27;96.79
11339;BME280;5724;42.684;23.252;2024-01-16T08:16:07;93831.75;;;-0.02;97.92
11339;BME280;5724;42.684;23.252;2024-01-16T08:18:33;93841.41;;;-0.01;100.00
11339;BME280;5724;42.684;23.252;2024-01-16T08:20:59;93850.47;;;-0.10;100.00
11339;BME280;5724;42.684;23.252;2024-01-16T08:23:24;93843.34;;;-0.37;100.00
11339;BME280;5724;42.684;23.252;2024-01-16T08:25:50;93865.22;;;-0.08;99.74
11339;BME280;5724;42.684;23.252;2024-01-16T08:28:17;93846.66;;;-0.18;99.93
11339;BME280;5724;42.684;23.252;2024-01-16T08:30:43;93880.63;;;-0.13;99.61
11339;BME280;5724;42.684;23.252;2024-01-16T08:33:09;93866.72;;;-0.15;99.84
11339;BME280;5724;42.684;23.252;2024-01-16T08:35:35;93889.69;;;-0.09;100.00
11339;BME280;5724;42.684;23.252;2024-01-16T08:38:00;93883.22;;;-0.08;100.00
11339;BME280;5724;42.684;23.252;2024-01-16T08:40:26;93898.03;;;-0.11;99.42
11339;BME280;5724;42.684;23.252;2024-01-16T08:42:52;93903.31;;;-0.19;97.56
11339;BME280;5724;42.684;23.252;2024-01-16T08:45:20;93907.88;;;-0.20;98.27
11339;BME280;5724;42.684;23.252;2024-01-16T08:47:46;93896.34;;;-0.20;98.34
11339;BME280;5724;42.684;23.252;2024-01-16T08:50:12;93924.59;;;-0.23;98.07
11339;BME280;5724;42.684;23.252;2024-01-16T08:52:37;93921.94;;;-0.23;98.00
11339;BME280;5724;42.684;23.252;2024-01-16T08:55:03;93925.88;;;-0.20;99.14
11339;BME280;5724;42.684;23.252;2024-01-16T08:57:29;93933.28;;;-0.26;99.36
11339;BME280;5724;42.684;23.252;2024-01-16T08:59:55;93933.44;;;-0.22;98.81
11339;BME280;5724;42.684;23.252;2024-01-16T09:02:20;93933.94;;;-0.20;99.12
11339;BME280;5724;42.684;23.252;2024-01-16T09:04:47;93928.00;;;-0.17;99.55
11339;BME280;5724;42.684;23.252;2024-01-16T09:07:18;93916.03;;;-0.11;99.06
11339;BME280;5724;42.684;23.252;2024-01-16T09:09:44;93926.34;;;-0.05;98.05
11339;BME280;5724;42.684;23.252;2024-01-16T09:12:09;93930.63;;;-0.04;98.32
11339;BME280;5724;42.684;23.252;2024-01-16T09:14:35;93924.84;;;0.03;97.58
11339;BME280;5724;42.684;23.252;2024-01-16T09:17:01;93928.81;;;0.06;97.04
11339;BME280;5724;42.684;23.252;2024-01-16T09:19:28;93946.41;;;0.12;96.39
11339;BME280;5724;42.684;23.252;2024-01-16T09:21:54;93941.06;;;0.12;95.03
11339;BME280;5724;42.684;23.252;2024-01-16T09:24:20;93947.69;;;0.14;95.16
11339;BME280;5724;42.684;23.252;2024-01-16T09:26:45;93939.69;;;0.01;95.73
11339;BME280;5724;42.684;23.252;2024-01-16T09:29:11;93953.59;;;0.03;95.65
11339;BME280;5724;42.684;23.252;2024-01-16T09:31:37;93946.66;;;0.02;95.43
11339;BME280;5724;42.684;23.252;2024-01-16T09:34:05;93948.38;;;0.20;95.71
11339;BME280;5724;42.684;23.252;2024-01-16T09:36:31;93937.91;;;0.18;95.11
11339;BME280;5724;42.684;23.252;2024-01-16T09:38:56;93934.81;;;0.25;93.88
11339;BME280;5724;42.684;23.252;2024-01-16T09:41:23;93936.38;;;0.40;95.02
11339;BME280;5724;42.684;23.252;2024-01-16T09:43:48;93943.94;;;0.60;95.35
11339;BME280;5724;42.684;23.252;2024-01-16T09:46:16;93955.91;;;0.54;92.24
11339;BME280;5724;42.684;23.252;2024-01-16T09:48:44;93944.91;;;0.64;93.08
11339;BME280;5724;42.684;23.252;2024-01-16T09:51:11;93957.53;;;0.77;92.67
11339;BME280;5724;42.684;23.252;2024-01-16T09:53:41;93947.59;;;0.64;91.42
11339;BME280;5724;42.684;23.252;2024-01-16T09:56:12;93967.09;;;0.47;91.71
11339;BME280;5724;42.684;23.252;2024-01-16T09:58:39;93911.13;;;0.27;91.08
11339;BME280;5724;42.684;23.252;2024-01-16T10:01:05;93947.44;;;0.61;91.78
11339;BME280;5724;42.684;23.252;2024-01-16T10:03:31;93943.63;;;0.84;90.93
11339;BME280;5724;42.684;23.252;2024-01-16T10:06:03;93945.63;;;1.01;89.97
11339;BME280;5724;42.684;23.252;2024-01-16T10:08:30;93953.31;;;0.94;89.06
11339;BME280;5724;42.684;23.252;2024-01-16T10:10:57;93942.47;;;0.76;88.55
11339;BME280;5724;42.684;23.252;2024-01-16T10:13:23;93939.97;;;0.80;88.80
11339;BME280;5724;42.684;23.252;2024-01-16T10:15:51;93951.97;;;1.05;88.96
11339;BME280;5724;42.684;23.252;2024-01-16T10:18:25;93955.63;;;1.09;88.05
11339;BME280;5724;42.684;23.252;2024-01-16T10:20:52;93944.47;;;0.93;87.21
11339;BME280;5724;42.684;23.252;2024-01-16T10:23:27;93965.06;;;0.98;88.62
11339;BME280;5724;42.684;23.252;2024-01-16T10:28:34;93975.16;;;0.92;88.99
11339;BME280;5724;42.684;23.252;2024-01-16T10:31:04;93966.44;;;0.64;87.55
11339;BME280;5724;42.684;23.252;2024-01-16T10:33:30;93955.44;;;0.52;87.93
11339;BME280;5724;42.684;23.252;2024-01-16T10:36:14;93959.84;;;0.70;87.56
11339;BME280;5724;42.684;23.252;2024-01-16T10:38:42;93962.28;;;0.80;86.94
11339;BME280;5724;42.684;23.252;2024-01-16T10:41:12;93959.97;;;0.96;85.46
11339;BME280;5724;42.684;23.252;2024-01-16T10:43:38;93965.41;;;1.05;85.88
11339;BME280;5724;42.684;23.252;2024-01-16T10:48:38;93969.41;;;0.85;84.35
11339;BME280;5724;42.684;23.252;2024-01-16T10:51:06;93966.25;;;0.83;86.41
11339;BME280;5724;42.684;23.252;2024-01-16T10:53:33;93956.00;;;0.94;85.53
11339;BME280;5724;42.684;23.252;2024-01-16T10:56:00;93934.28;;;1.12;86.03
11339;BME280;5724;42.684;23.252;2024-01-16T10:58:26;93950.75;;;1.11;84.20
11339;BME280;5724;42.684;23.252;2024-01-16T11:00:54;93949.16;;;1.10;85.90
11339;BME280;5724;42.684;23.252;2024-01-16T11:03:35;93964.28;;;0.97;85.15
11339;BME280;5724;42.684;23.252;2024-01-16T11:06:05;93961.44;;;1.02;86.70
11339;BME280;5724;42.684;23.252;2024-01-16T11:08:31;93966.56;;;1.12;86.19
11339;BME280;5724;42.684;23.252;2024-01-16T11:11:01;93963.97;;;1.30;87.43
11339;BME280;5724;42.684;23.252;2024-01-16T11:13:31;93973.66;;;1.39;87.96
11339;BME280;5724;42.684;23.252;2024-01-16T11:15:59;93966.38;;;1.40;87.91
11339;BME280;5724;42.684;23.252;2024-01-16T11:18:25;93974.47;;;1.40;87.76
11339;BME280;5724;42.684;23.252;2024-01-16T11:20:53;93965.44;;;1.36;89.72
11339;BME280;5724;42.684;23.252;2024-01-16T11:23:19;93968.28;;;1.39;89.54
11339;BME280;5724;42.684;23.252;2024-01-16T11:25:45;93967.88;;;1.24;89.42
11339;BME280;5724;42.684;23.252;2024-01-16T11:28:12;93971.41;;;1.02;89.83
11339;BME280;5724;42.684;23.252;2024-01-16T11:30:39;93963.41;;;1.10;89.87
11339;BME280;5724;42.684;23.252;2024-01-16T11:33:05;93955.59;;;1.00;89.16
11339;BME280;5724;42.684;23.252;2024-01-16T11:35:35;93973.78;;;1.03;89.43
11339;BME280;5724;42.684;23.252;2024-01-16T11:38:13;93955.44;;;0.97;90.71
11339;BME280;5724;42.684;23.252;2024-01-16T11:40:41;93963.78;;;0.95;92.80
11339;BME280;5724;42.684;23.252;2024-01-16T11:46:16;93970.19;;;1.08;93.09
11339;BME280;5724;42.684;23.252;2024-01-16T11:49:01;93977.91;;;1.01;92.19
11339;BME280;5724;42.684;23.252;2024-01-16T11:51:27;93986.88;;;0.96;93.15
11339;BME280;5724;42.684;23.252;2024-01-16T11:53:52;93982.91;;;0.94;92.79
11339;BME280;5724;42.684;23.252;2024-01-16T12:01:58;93992.41;;;0.69;90.77
11339;BME280;5724;42.684;23.252;2024-01-16T12:04:24;94010.00;;;0.75;91.52
11339;BME280;5724;42.684;23.252;2024-01-16T12:07:00;93992.81;;;0.62;89.53
11339;BME280;5724;42.684;23.252;2024-01-16T12:09:27;94016.00;;;0.72;90.71
11339;BME280;5724;42.684;23.252;2024-01-16T12:11:58;94016.72;;;0.64;90.59
11339;BME280;5724;42.684;23.252;2024-01-16T12:14:24;94008.72;;;0.50;90.08
11339;BME280;5724;42.684;23.252;2024-01-16T12:16:49;94008.25;;;0.56;91.53
11339;BME280;5724;42.684;23.252;2024-01-16T12:19:15;94004.31;;;0.76;91.66
11339;BME280;5724;42.684;23.252;2024-01-16T12:21:42;93992.16;;;0.79;92.31
11339;BME280;5724;42.684;23.252;2024-01-16T12:24:10;94005.59;;;0.79;90.54
11339;BME280;5724;42.684;23.252;2024-01-16T12:26:36;94005.09;;;0.77;91.14
11339;BME280;5724;42.684;23.252;2024-01-16T12:29:02;93999.84;;;0.72;89.54
11339;BME280;5724;42.684;23.252;2024-01-16T12:31:28;94029.84;;;0.65;88.61
11339;BME280;5724;42.684;23.252;2024-01-16T12:34:07;94024.16;;;0.67;89.12
11339;BME280;5724;42.684;23.252;2024-01-16T12:36:34;94003.44;;;0.67;89.42
11339;BME280;5724;42.684;23.252;2024-01-16T12:38:59;94025.28;;;0.88;90.11
11339;BME280;5724;42.684;23.252;2024-01-16T12:41:26;94028.56;;;0.85;88.91
11339;BME280;5724;42.684;23.252;2024-01-16T12:43:53;94026.59;;;0.77;89.06
11339;BME280;5724;42.684;23.252;2024-01-16T12:46:18;94033.59;;;0.78;89.97
11339;BME280;5724;42.684;23.252;2024-01-16T12:48:44;94018.84;;;0.75;88.43
11339;BME280;5724;42.684;23.252;2024-01-16T12:51:21;94030.78;;;0.83;90.45
11339;BME280;5724;42.684;23.252;2024-01-16T12:53:49;93998.69;;;0.64;89.16
11339;BME280;5724;42.684;23.252;2024-01-16T12:56:19;94002.19;;;0.87;90.16
11339;BME280;5724;42.684;23.252;2024-01-16T12:58:46;94023.03;;;0.81;89.91
11339;BME280;5724;42.684;23.252;2024-01-16T13:03:48;94025.28;;;0.88;89.41
11339;BME280;5724;42.684;23.252;2024-01-16T13:06:19;94041.34;;;0.79;87.96
11339;BME280;5724;42.684;23.252;2024-01-16T13:08:50;94042.75;;;0.77;87.82
11339;BME280;5724;42.684;23.252;2024-01-16T13:11:17;94037.19;;;0.73;87.43
11339;BME280;5724;42.684;23.252;2024-01-16T13:13:46;94030.59;;;0.79;88.13
11339;BME280;5724;42.684;23.252;2024-01-16T13:16:16;94048.13;;;0.77;86.92
11339;BME280;5724;42.684;23.252;2024-01-16T13:18:41;94037.19;;;0.73;87.26